ADDS METAR Data INFO
IDs: Format: Raw Decoded Include TAF

Data at: 0439 UTC 25 Apr 2017

METAR for:KHLX (Hillsville/Twin Cnty, VA, US)
Text:KHLX 250415Z AUTO 05012G17KT 10SM -RA OVC004 10/10 A2979 RMK AO2 T01020102
Temperature: 10.2°C ( 50°F)
Dewpoint: 10.2°C ( 50°F) [RH = 100%]
Pressure (altimeter):29.79 inches Hg (1008.9 mb)
Winds:from the NE (50 degrees) at 14 MPH (12 knots; 6.2 m/s) gusting to 20 MPH (17 knots; 8.7 m/s)
Visibility:10 or more sm (16+ km)
Ceiling:400 feet AGL
Clouds: overcast cloud deck at 400 feet AGL
Weather:-RA (light rain)
QC Flag:automated observation with no human augmentation


Page loaded:  04:39 UTC  |   09:39 PM Pacific  |   10:39 PM Mountain  |   11:39 PM Central  |   12:39 AM Eastern

 

ADVISORIES

FORECASTS

FORECASTS

OBSERVATIONS

USER TOOLS

ABOUT US